sensor_id;sensor_type;location;lat;lon;timestamp;P1;durP1;ratioP1;P2;durP2;ratioP2
40635;SDS011;26642;55.766;37.828;2023-03-11T00:00:25;9.82;;;5.03;;
40635;SDS011;26642;55.766;37.828;2023-03-11T00:02:53;6.25;;;4.43;;
40635;SDS011;26642;55.766;37.828;2023-03-11T00:07:49;7.80;;;4.90;;
40635;SDS011;26642;55.766;37.828;2023-03-11T00:10:17;6.82;;;4.82;;
40635;SDS011;26642;55.766;37.828;2023-03-11T00:12:48;7.03;;;4.93;;
40635;SDS011;26642;55.766;37.828;2023-03-11T00:15:14;8.38;;;5.05;;
40635;SDS011;26642;55.766;37.828;2023-03-11T00:17:40;7.53;;;4.85;;
40635;SDS011;26642;55.766;37.828;2023-03-11T00:20:07;7.13;;;5.13;;
40635;SDS011;26642;55.766;37.828;2023-03-11T00:22:39;7.53;;;5.40;;
40635;SDS011;26642;55.766;37.828;2023-03-11T00:25:05;7.38;;;5.50;;
40635;SDS011;26642;55.766;37.828;2023-03-11T00:27:31;9.57;;;6.47;;
40635;SDS011;26642;55.766;37.828;2023-03-11T00:29:57;8.80;;;6.15;;
40635;SDS011;26642;55.766;37.828;2023-03-11T00:32:23;10.07;;;5.85;;
40635;SDS011;26642;55.766;37.828;2023-03-11T00:34:49;8.35;;;6.10;;
40635;SDS011;26642;55.766;37.828;2023-03-11T00:37:16;8.55;;;5.95;;
40635;SDS011;26642;55.766;37.828;2023-03-11T00:39:42;8.35;;;6.15;;
40635;SDS011;26642;55.766;37.828;2023-03-11T00:42:09;8.00;;;5.22;;
40635;SDS011;26642;55.766;37.828;2023-03-11T00:44:37;8.50;;;5.13;;
40635;SDS011;26642;55.766;37.828;2023-03-11T00:47:03;7.70;;;4.88;;
40635;SDS011;26642;55.766;37.828;2023-03-11T00:49:29;7.88;;;5.50;;
40635;SDS011;26642;55.766;37.828;2023-03-11T00:51:55;5.97;;;3.97;;
40635;SDS011;26642;55.766;37.828;2023-03-11T00:54:21;8.57;;;4.88;;
40635;SDS011;26642;55.766;37.828;2023-03-11T00:56:47;5.90;;;4.10;;
40635;SDS011;26642;55.766;37.828;2023-03-11T00:59:13;5.88;;;4.30;;
40635;SDS011;26642;55.766;37.828;2023-03-11T01:01:39;6.25;;;4.22;;
40635;SDS011;26642;55.766;37.828;2023-03-11T01:04:05;5.80;;;4.07;;
40635;SDS011;26642;55.766;37.828;2023-03-11T01:06:31;6.65;;;4.10;;
40635;SDS011;26642;55.766;37.828;2023-03-11T01:08:57;5.28;;;3.63;;
40635;SDS011;26642;55.766;37.828;2023-03-11T01:11:23;6.07;;;4.07;;
40635;SDS011;26642;55.766;37.828;2023-03-11T01:13:49;6.47;;;4.18;;
40635;SDS011;26642;55.766;37.828;2023-03-11T01:16:15;6.00;;;4.70;;
40635;SDS011;26642;55.766;37.828;2023-03-11T01:18:41;6.30;;;4.32;;
40635;SDS011;26642;55.766;37.828;2023-03-11T01:21:07;6.57;;;4.32;;
40635;SDS011;26642;55.766;37.828;2023-03-11T01:23:33;7.15;;;4.20;;
40635;SDS011;26642;55.766;37.828;2023-03-11T01:25:59;6.10;;;4.35;;
40635;SDS011;26642;55.766;37.828;2023-03-11T01:28:25;7.30;;;4.22;;
40635;SDS011;26642;55.766;37.828;2023-03-11T01:30:51;7.88;;;4.82;;
40635;SDS011;26642;55.766;37.828;2023-03-11T01:33:19;6.45;;;4.30;;
40635;SDS011;26642;55.766;37.828;2023-03-11T01:35:45;6.65;;;4.43;;
40635;SDS011;26642;55.766;37.828;2023-03-11T01:38:13;6.50;;;4.30;;
40635;SDS011;26642;55.766;37.828;2023-03-11T01:40:48;6.35;;;4.30;;
40635;SDS011;26642;55.766;37.828;2023-03-11T01:46:07;6.13;;;4.40;;
40635;SDS011;26642;55.766;37.828;2023-03-11T01:48:52;4.72;;;4.18;;
40635;SDS011;26642;55.766;37.828;2023-03-11T01:51:24;5.75;;;4.00;;
40635;SDS011;26642;55.766;37.828;2023-03-11T01:54:04;5.90;;;4.03;;
40635;SDS011;26642;55.766;37.828;2023-03-11T01:56:35;5.43;;;4.10;;
40635;SDS011;26642;55.766;37.828;2023-03-11T01:59:03;6.45;;;4.72;;
40635;SDS011;26642;55.766;37.828;2023-03-11T02:01:30;6.55;;;4.72;;
40635;SDS011;26642;55.766;37.828;2023-03-11T02:03:58;5.90;;;4.72;;
40635;SDS011;26642;55.766;37.828;2023-03-11T02:06:26;7.30;;;4.80;;
40635;SDS011;26642;55.766;37.828;2023-03-11T02:08:53;6.93;;;4.32;;
40635;SDS011;26642;55.766;37.828;2023-03-11T02:11:23;6.43;;;4.47;;
40635;SDS011;26642;55.766;37.828;2023-03-11T02:13:55;5.57;;;4.25;;
40635;SDS011;26642;55.766;37.828;2023-03-11T02:16:26;7.13;;;4.15;;
40635;SDS011;26642;55.766;37.828;2023-03-11T02:18:52;6.22;;;4.32;;
40635;SDS011;26642;55.766;37.828;2023-03-11T02:21:22;5.40;;;4.10;;
40635;SDS011;26642;55.766;37.828;2023-03-11T02:23:56;5.85;;;4.35;;
40635;SDS011;26642;55.766;37.828;2023-03-11T02:26:38;6.30;;;4.00;;
40635;SDS011;26642;55.766;37.828;2023-03-11T02:29:19;6.43;;;4.32;;
40635;SDS011;26642;55.766;37.828;2023-03-11T02:31:46;6.00;;;4.03;;
40635;SDS011;26642;55.766;37.828;2023-03-11T02:34:31;4.78;;;3.90;;
40635;SDS011;26642;55.766;37.828;2023-03-11T02:36:59;4.68;;;4.05;;
40635;SDS011;26642;55.766;37.828;2023-03-11T02:39:29;6.45;;;3.72;;
40635;SDS011;26642;55.766;37.828;2023-03-11T02:42:04;4.82;;;3.50;;
40635;SDS011;26642;55.766;37.828;2023-03-11T02:44:34;5.68;;;4.00;;
40635;SDS011;26642;55.766;37.828;2023-03-11T02:47:01;6.13;;;3.88;;
40635;SDS011;26642;55.766;37.828;2023-03-11T02:49:29;7.13;;;4.38;;
40635;SDS011;26642;55.766;37.828;2023-03-11T02:51:55;4.88;;;3.78;;
40635;SDS011;26642;55.766;37.828;2023-03-11T02:54:21;5.00;;;3.80;;
40635;SDS011;26642;55.766;37.828;2023-03-11T02:56:47;6.93;;;4.22;;
40635;SDS011;26642;55.766;37.828;2023-03-11T02:59:13;5.78;;;4.25;;
40635;SDS011;26642;55.766;37.828;2023-03-11T03:01:39;7.35;;;4.10;;
40635;SDS011;26642;55.766;37.828;2023-03-11T03:04:05;6.18;;;4.13;;
40635;SDS011;26642;55.766;37.828;2023-03-11T03:06:32;5.95;;;4.30;;
40635;SDS011;26642;55.766;37.828;2023-03-11T03:08:58;6.53;;;4.00;;
40635;SDS011;26642;55.766;37.828;2023-03-11T03:11:24;7.28;;;4.50;;
40635;SDS011;26642;55.766;37.828;2023-03-11T03:13:50;7.10;;;4.10;;
40635;SDS011;26642;55.766;37.828;2023-03-11T03:16:16;6.10;;;4.30;;
40635;SDS011;26642;55.766;37.828;2023-03-11T03:18:42;5.30;;;4.10;;
40635;SDS011;26642;55.766;37.828;2023-03-11T03:21:08;6.20;;;4.20;;
40635;SDS011;26642;55.766;37.828;2023-03-11T03:23:34;5.55;;;4.10;;
40635;SDS011;26642;55.766;37.828;2023-03-11T03:26:02;5.50;;;4.00;;
40635;SDS011;26642;55.766;37.828;2023-03-11T03:28:30;6.60;;;4.22;;
40635;SDS011;26642;55.766;37.828;2023-03-11T03:31:02;6.22;;;4.18;;
40635;SDS011;26642;55.766;37.828;2023-03-11T03:33:30;6.53;;;4.20;;
40635;SDS011;26642;55.766;37.828;2023-03-11T03:35:57;6.82;;;4.50;;
40635;SDS011;26642;55.766;37.828;2023-03-11T03:38:27;7.00;;;4.63;;
40635;SDS011;26642;55.766;37.828;2023-03-11T03:40:53;5.85;;;4.28;;
40635;SDS011;26642;55.766;37.828;2023-03-11T03:43:20;6.43;;;4.30;;
40635;SDS011;26642;55.766;37.828;2023-03-11T03:45:57;5.68;;;4.28;;
40635;SDS011;26642;55.766;37.828;2023-03-11T03:48:28;6.50;;;4.15;;
40635;SDS011;26642;55.766;37.828;2023-03-11T03:50:55;5.20;;;3.97;;
40635;SDS011;26642;55.766;37.828;2023-03-11T03:53:21;5.97;;;4.22;;
40635;SDS011;26642;55.766;37.828;2023-03-11T03:55:47;5.93;;;4.80;;
40635;SDS011;26642;55.766;37.828;2023-03-11T03:58:15;6.07;;;4.40;;
40635;SDS011;26642;55.766;37.828;2023-03-11T04:00:42;7.57;;;4.53;;
40635;SDS011;26642;55.766;37.828;2023-03-11T04:03:08;6.22;;;4.40;;
40635;SDS011;26642;55.766;37.828;2023-03-11T04:05:42;5.40;;;4.10;;
40635;SDS011;26642;55.766;37.828;2023-03-11T04:08:08;5.90;;;4.47;;
40635;SDS011;26642;55.766;37.828;2023-03-11T04:10:34;6.03;;;4.65;;
40635;SDS011;26642;55.766;37.828;2023-03-11T04:13:01;8.32;;;4.57;;
40635;SDS011;26642;55.766;37.828;2023-03-11T04:15:27;7.18;;;4.90;;
40635;SDS011;26642;55.766;37.828;2023-03-11T04:17:53;6.50;;;4.95;;
40635;SDS011;26642;55.766;37.828;2023-03-11T04:20:19;7.40;;;4.45;;
40635;SDS011;26642;55.766;37.828;2023-03-11T04:22:47;6.13;;;4.82;;
40635;SDS011;26642;55.766;37.828;2023-03-11T04:25:14;5.95;;;4.55;;
40635;SDS011;26642;55.766;37.828;2023-03-11T04:27:40;7.82;;;4.82;;
40635;SDS011;26642;55.766;37.828;2023-03-11T04:30:11;6.60;;;4.78;;
40635;SDS011;26642;55.766;37.828;2023-03-11T04:32:37;10.48;;;4.70;;
40635;SDS011;26642;55.766;37.828;2023-03-11T04:35:04;6.85;;;4.28;;
40635;SDS011;26642;55.766;37.828;2023-03-11T04:37:31;6.43;;;4.60;;
40635;SDS011;26642;55.766;37.828;2023-03-11T04:39:58;7.57;;;4.75;;
40635;SDS011;26642;55.766;37.828;2023-03-11T04:42:24;7.28;;;5.28;;
40635;SDS011;26642;55.766;37.828;2023-03-11T04:44:51;6.45;;;4.97;;
40635;SDS011;26642;55.766;37.828;2023-03-11T04:47:18;7.78;;;5.07;;
40635;SDS011;26642;55.766;37.828;2023-03-11T04:49:46;7.07;;;5.55;;
40635;SDS011;26642;55.766;37.828;2023-03-11T04:52:12;7.45;;;5.68;;
40635;SDS011;26642;55.766;37.828;2023-03-11T04:54:44;8.43;;;5.63;;
40635;SDS011;26642;55.766;37.828;2023-03-11T04:57:16;8.85;;;5.60;;
40635;SDS011;26642;55.766;37.828;2023-03-11T04:59:43;8.07;;;5.40;;
40635;SDS011;26642;55.766;37.828;2023-03-11T05:02:13;7.57;;;5.40;;
40635;SDS011;26642;55.766;37.828;2023-03-11T05:04:45;8.23;;;5.78;;
40635;SDS011;26642;55.766;37.828;2023-03-11T05:07:13;6.57;;;5.00;;
40635;SDS011;26642;55.766;37.828;2023-03-11T05:09:39;7.43;;;5.30;;
40635;SDS011;26642;55.766;37.828;2023-03-11T05:12:05;6.85;;;4.97;;
40635;SDS011;26642;55.766;37.828;2023-03-11T05:14:33;6.82;;;5.13;;
40635;SDS011;26642;55.766;37.828;2023-03-11T05:17:00;6.50;;;5.05;;
40635;SDS011;26642;55.766;37.828;2023-03-11T05:19:26;7.90;;;5.70;;
40635;SDS011;26642;55.766;37.828;2023-03-11T05:21:56;7.70;;;5.68;;
40635;SDS011;26642;55.766;37.828;2023-03-11T05:24:24;8.40;;;5.50;;
40635;SDS011;26642;55.766;37.828;2023-03-11T05:26:51;6.47;;;4.65;;
40635;SDS011;26642;55.766;37.828;2023-03-11T05:29:17;6.47;;;5.15;;
40635;SDS011;26642;55.766;37.828;2023-03-11T05:31:45;7.10;;;5.20;;
40635;SDS011;26642;55.766;37.828;2023-03-11T05:34:11;7.07;;;4.90;;
40635;SDS011;26642;55.766;37.828;2023-03-11T05:36:38;8.20;;;4.93;;
40635;SDS011;26642;55.766;37.828;2023-03-11T05:39:04;7.38;;;5.50;;
40635;SDS011;26642;55.766;37.828;2023-03-11T05:41:32;7.32;;;5.05;;
40635;SDS011;26642;55.766;37.828;2023-03-11T05:43:58;8.27;;;5.38;;
40635;SDS011;26642;55.766;37.828;2023-03-11T05:46:24;7.30;;;5.00;;
40635;SDS011;26642;55.766;37.828;2023-03-11T05:48:51;6.47;;;4.90;;
40635;SDS011;26642;55.766;37.828;2023-03-11T05:51:17;7.60;;;4.65;;
40635;SDS011;26642;55.766;37.828;2023-03-11T05:53:45;8.40;;;4.80;;
40635;SDS011;26642;55.766;37.828;2023-03-11T05:56:16;6.75;;;5.00;;
40635;SDS011;26642;55.766;37.828;2023-03-11T05:58:44;6.60;;;4.88;;
40635;SDS011;26642;55.766;37.828;2023-03-11T06:01:12;6.95;;;5.22;;
40635;SDS011;26642;55.766;37.828;2023-03-11T06:03:41;7.05;;;5.03;;
40635;SDS011;26642;55.766;37.828;2023-03-11T06:06:08;6.25;;;4.72;;
40635;SDS011;26642;55.766;37.828;2023-03-11T06:08:37;6.00;;;4.35;;
40635;SDS011;26642;55.766;37.828;2023-03-11T06:11:04;6.90;;;4.63;;
40635;SDS011;26642;55.766;37.828;2023-03-11T06:13:36;7.32;;;5.18;;
40635;SDS011;26642;55.766;37.828;2023-03-11T06:16:02;6.15;;;4.65;;
40635;SDS011;26642;55.766;37.828;2023-03-11T06:18:29;7.38;;;5.03;;
40635;SDS011;26642;55.766;37.828;2023-03-11T06:20:59;7.15;;;4.88;;
40635;SDS011;26642;55.766;37.828;2023-03-11T06:23:27;7.30;;;4.43;;
40635;SDS011;26642;55.766;37.828;2023-03-11T06:26:00;7.22;;;4.72;;
40635;SDS011;26642;55.766;37.828;2023-03-11T06:28:33;7.80;;;4.88;;
40635;SDS011;26642;55.766;37.828;2023-03-11T06:31:07;6.75;;;4.68;;
40635;SDS011;26642;55.766;37.828;2023-03-11T06:33:35;6.93;;;5.13;;
40635;SDS011;26642;55.766;37.828;2023-03-11T06:36:02;6.90;;;4.85;;
40635;SDS011;26642;55.766;37.828;2023-03-11T06:38:29;5.72;;;4.72;;
40635;SDS011;26642;55.766;37.828;2023-03-11T06:41:00;7.07;;;5.28;;
40635;SDS011;26642;55.766;37.828;2023-03-11T06:43:29;6.47;;;4.85;;
40635;SDS011;26642;55.766;37.828;2023-03-11T06:45:58;6.90;;;4.70;;
40635;SDS011;26642;55.766;37.828;2023-03-11T06:48:25;4.75;;;4.00;;
40635;SDS011;26642;55.766;37.828;2023-03-11T06:50:56;7.07;;;4.70;;
40635;SDS011;26642;55.766;37.828;2023-03-11T06:53:24;7.07;;;4.40;;
40635;SDS011;26642;55.766;37.828;2023-03-11T06:58:40;6.13;;;4.60;;
40635;SDS011;26642;55.766;37.828;2023-03-11T07:01:09;6.00;;;4.95;;
40635;SDS011;26642;55.766;37.828;2023-03-11T07:03:41;7.53;;;4.55;;
40635;SDS011;26642;55.766;37.828;2023-03-11T07:06:12;5.85;;;4.57;;
40635;SDS011;26642;55.766;37.828;2023-03-11T07:08:38;5.88;;;4.30;;
40635;SDS011;26642;55.766;37.828;2023-03-11T07:11:07;6.85;;;4.50;;
40635;SDS011;26642;55.766;37.828;2023-03-11T07:14:07;6.47;;;4.57;;
40635;SDS011;26642;55.766;37.828;2023-03-11T07:16:37;5.18;;;4.22;;
40635;SDS011;26642;55.766;37.828;2023-03-11T07:19:10;6.60;;;4.40;;
40635;SDS011;26642;55.766;37.828;2023-03-11T07:21:36;5.57;;;4.20;;
40635;SDS011;26642;55.766;37.828;2023-03-11T07:24:03;7.18;;;4.10;;
40635;SDS011;26642;55.766;37.828;2023-03-11T07:26:31;5.35;;;3.72;;
40635;SDS011;26642;55.766;37.828;2023-03-11T07:28:58;5.65;;;4.00;;
40635;SDS011;26642;55.766;37.828;2023-03-11T07:31:26;6.07;;;3.53;;
40635;SDS011;26642;55.766;37.828;2023-03-11T07:33:56;5.47;;;3.67;;
40635;SDS011;26642;55.766;37.828;2023-03-11T07:36:24;5.70;;;3.97;;
40635;SDS011;26642;55.766;37.828;2023-03-11T07:38:55;4.47;;;3.63;;
40635;SDS011;26642;55.766;37.828;2023-03-11T07:41:24;5.43;;;3.10;;
40635;SDS011;26642;55.766;37.828;2023-03-11T07:43:54;4.45;;;3.22;;
40635;SDS011;26642;55.766;37.828;2023-03-11T07:46:22;5.35;;;3.45;;
40635;SDS011;26642;55.766;37.828;2023-03-11T07:48:49;5.40;;;3.50;;
40635;SDS011;26642;55.766;37.828;2023-03-11T07:51:16;5.72;;;3.30;;
40635;SDS011;26642;55.766;37.828;2023-03-11T07:53:47;7.03;;;2.88;;
40635;SDS011;26642;55.766;37.828;2023-03-11T07:56:14;3.60;;;2.50;;
40635;SDS011;26642;55.766;37.828;2023-03-11T07:58:41;4.50;;;3.22;;
40635;SDS011;26642;55.766;37.828;2023-03-11T08:01:09;3.60;;;2.90;;
40635;SDS011;26642;55.766;37.828;2023-03-11T08:03:37;3.80;;;2.97;;
40635;SDS011;26642;55.766;37.828;2023-03-11T08:06:13;6.63;;;3.63;;
40635;SDS011;26642;55.766;37.828;2023-03-11T08:08:41;3.67;;;2.83;;
40635;SDS011;26642;55.766;37.828;2023-03-11T08:11:07;5.53;;;3.50;;
40635;SDS011;26642;55.766;37.828;2023-03-11T08:13:34;4.35;;;3.15;;
40635;SDS011;26642;55.766;37.828;2023-03-11T08:16:03;4.95;;;3.55;;
40635;SDS011;26642;55.766;37.828;2023-03-11T08:18:31;4.78;;;3.22;;
40635;SDS011;26642;55.766;37.828;2023-03-11T08:20:57;4.78;;;3.10;;
40635;SDS011;26642;55.766;37.828;2023-03-11T08:23:23;5.05;;;2.90;;
40635;SDS011;26642;55.766;37.828;2023-03-11T08:25:49;5.28;;;3.33;;
40635;SDS011;26642;55.766;37.828;2023-03-11T08:28:15;3.78;;;3.40;;
40635;SDS011;26642;55.766;37.828;2023-03-11T08:30:41;7.43;;;4.65;;
40635;SDS011;26642;55.766;37.828;2023-03-11T08:33:07;5.65;;;3.92;;
40635;SDS011;26642;55.766;37.828;2023-03-11T08:35:33;4.82;;;3.70;;
40635;SDS011;26642;55.766;37.828;2023-03-11T08:37:59;5.22;;;4.25;;
40635;SDS011;26642;55.766;37.828;2023-03-11T08:40:25;6.57;;;3.95;;
40635;SDS011;26642;55.766;37.828;2023-03-11T08:42:50;6.68;;;4.35;;
40635;SDS011;26642;55.766;37.828;2023-03-11T08:45:16;5.10;;;4.00;;
40635;SDS011;26642;55.766;37.828;2023-03-11T08:47:42;7.97;;;5.00;;
40635;SDS011;26642;55.766;37.828;2023-03-11T08:50:11;8.40;;;6.28;;
40635;SDS011;26642;55.766;37.828;2023-03-11T08:52:39;8.80;;;6.07;;
40635;SDS011;26642;55.766;37.828;2023-03-11T08:55:06;8.60;;;5.97;;
40635;SDS011;26642;55.766;37.828;2023-03-11T08:57:33;8.82;;;5.72;;
40635;SDS011;26642;55.766;37.828;2023-03-11T08:59:59;6.68;;;4.70;;
40635;SDS011;26642;55.766;37.828;2023-03-11T09:02:25;7.63;;;5.10;;
40635;SDS011;26642;55.766;37.828;2023-03-11T09:04:51;5.60;;;4.15;;
40635;SDS011;26642;55.766;37.828;2023-03-11T09:07:17;6.40;;;4.65;;
40635;SDS011;26642;55.766;37.828;2023-03-11T09:09:43;5.85;;;4.20;;
40635;SDS011;26642;55.766;37.828;2023-03-11T09:12:10;5.50;;;4.28;;
40635;SDS011;26642;55.766;37.828;2023-03-11T09:14:39;4.85;;;3.80;;
40635;SDS011;26642;55.766;37.828;2023-03-11T09:17:06;5.43;;;3.92;;
40635;SDS011;26642;55.766;37.828;2023-03-11T09:19:32;5.45;;;4.38;;
40635;SDS011;26642;55.766;37.828;2023-03-11T09:21:59;4.32;;;3.85;;
40635;SDS011;26642;55.766;37.828;2023-03-11T09:24:25;5.30;;;3.70;;
40635;SDS011;26642;55.766;37.828;2023-03-11T09:26:52;4.85;;;3.58;;
40635;SDS011;26642;55.766;37.828;2023-03-11T09:29:19;5.80;;;3.50;;
40635;SDS011;26642;55.766;37.828;2023-03-11T09:31:45;4.78;;;3.47;;
40635;SDS011;26642;55.766;37.828;2023-03-11T09:34:11;4.22;;;3.50;;
40635;SDS011;26642;55.766;37.828;2023-03-11T09:36:39;4.55;;;3.13;;
40635;SDS011;26642;55.766;37.828;2023-03-11T09:39:06;4.40;;;3.33;;
40635;SDS011;26642;55.766;37.828;2023-03-11T09:52:37;4.68;;;3.13;;
40635;SDS011;26642;55.766;37.828;2023-03-11T09:55:08;4.20;;;2.97;;
40635;SDS011;26642;55.766;37.828;2023-03-11T09:57:58;3.70;;;3.08;;
40635;SDS011;26642;55.766;37.828;2023-03-11T10:00:27;4.00;;;3.22;;
40635;SDS011;26642;55.766;37.828;2023-03-11T10:02:53;2.70;;;2.50;;
40635;SDS011;26642;55.766;37.828;2023-03-11T10:05:27;4.50;;;3.33;;
40635;SDS011;26642;55.766;37.828;2023-03-11T10:08:06;5.30;;;2.75;;
40635;SDS011;26642;55.766;37.828;2023-03-11T10:11:00;3.72;;;2.80;;
40635;SDS011;26642;55.766;37.828;2023-03-11T10:13:44;3.60;;;2.90;;
40635;SDS011;26642;55.766;37.828;2023-03-11T10:16:41;4.82;;;2.97;;
40635;SDS011;26642;55.766;37.828;2023-03-11T10:19:17;5.07;;;3.15;;
40635;SDS011;26642;55.766;37.828;2023-03-11T10:27:19;3.53;;;2.85;;
40635;SDS011;26642;55.766;37.828;2023-03-11T10:33:13;3.70;;;2.70;;
40635;SDS011;26642;55.766;37.828;2023-03-11T10:35:39;4.05;;;2.50;;
40635;SDS011;26642;55.766;37.828;2023-03-11T10:38:18;3.42;;;2.53;;
40635;SDS011;26642;55.766;37.828;2023-03-11T10:40:49;4.57;;;2.60;;
40635;SDS011;26642;55.766;37.828;2023-03-11T10:43:23;3.05;;;2.50;;
40635;SDS011;26642;55.766;37.828;2023-03-11T10:45:55;4.72;;;2.53;;
40635;SDS011;26642;55.766;37.828;2023-03-11T10:48:23;3.42;;;2.42;;
40635;SDS011;26642;55.766;37.828;2023-03-11T10:53:22;2.60;;;2.35;;
40635;SDS011;26642;55.766;37.828;2023-03-11T10:55:50;4.25;;;2.53;;
40635;SDS011;26642;55.766;37.828;2023-03-11T10:58:22;4.28;;;2.50;;
40635;SDS011;26642;55.766;37.828;2023-03-11T11:03:28;3.85;;;2.58;;
40635;SDS011;26642;55.766;37.828;2023-03-11T11:05:56;3.30;;;2.38;;
40635;SDS011;26642;55.766;37.828;2023-03-11T11:08:24;3.08;;;2.40;;
40635;SDS011;26642;55.766;37.828;2023-03-11T11:13:20;3.15;;;2.50;;
40635;SDS011;26642;55.766;37.828;2023-03-11T11:18:29;3.33;;;3.03;;
40635;SDS011;26642;55.766;37.828;2023-03-11T11:21:30;4.50;;;2.80;;
40635;SDS011;26642;55.766;37.828;2023-03-11T11:29:29;3.65;;;2.80;;
40635;SDS011;26642;55.766;37.828;2023-03-11T11:32:10;5.60;;;2.97;;
40635;SDS011;26642;55.766;37.828;2023-03-11T11:35:04;4.20;;;3.45;;
40635;SDS011;26642;55.766;37.828;2023-03-11T11:37:32;3.30;;;2.90;;
40635;SDS011;26642;55.766;37.828;2023-03-11T11:40:05;4.20;;;3.30;;
40635;SDS011;26642;55.766;37.828;2023-03-11T11:42:40;3.63;;;3.25;;
40635;SDS011;26642;55.766;37.828;2023-03-11T11:45:15;3.80;;;3.42;;
40635;SDS011;26642;55.766;37.828;2023-03-11T11:47:46;3.58;;;3.20;;
40635;SDS011;26642;55.766;37.828;2023-03-11T11:50:39;5.07;;;3.67;;
40635;SDS011;26642;55.766;37.828;2023-03-11T11:53:11;4.95;;;3.50;;
40635;SDS011;26642;55.766;37.828;2023-03-11T11:55:49;4.40;;;3.38;;
40635;SDS011;26642;55.766;37.828;2023-03-11T11:58:18;3.85;;;3.10;;
40635;SDS011;26642;55.766;37.828;2023-03-11T12:09:02;3.67;;;3.05;;
40635;SDS011;26642;55.766;37.828;2023-03-11T12:14:38;2.90;;;2.55;;
40635;SDS011;26642;55.766;37.828;2023-03-11T12:17:13;4.25;;;3.55;;
40635;SDS011;26642;55.766;37.828;2023-03-11T12:27:40;4.50;;;3.40;;
40635;SDS011;26642;55.766;37.828;2023-03-11T12:30:17;4.45;;;3.38;;
40635;SDS011;26642;55.766;37.828;2023-03-11T12:32:48;3.83;;;3.00;;
40635;SDS011;26642;55.766;37.828;2023-03-11T12:35:29;3.38;;;3.05;;
40635;SDS011;26642;55.766;37.828;2023-03-11T12:38:15;3.35;;;2.75;;
40635;SDS011;26642;55.766;37.828;2023-03-11T12:41:05;3.17;;;2.70;;
40635;SDS011;26642;55.766;37.828;2023-03-11T12:46:17;4.85;;;3.00;;
40635;SDS011;26642;55.766;37.828;2023-03-11T12:48:47;4.72;;;3.40;;
40635;SDS011;26642;55.766;37.828;2023-03-11T12:53:58;6.93;;;3.60;;
40635;SDS011;26642;55.766;37.828;2023-03-11T12:56:59;3.85;;;2.70;;
40635;SDS011;26642;55.766;37.828;2023-03-11T13:04:57;6.88;;;3.60;;
40635;SDS011;26642;55.766;37.828;2023-03-11T13:07:40;4.38;;;3.55;;
40635;SDS011;26642;55.766;37.828;2023-03-11T13:12:57;6.10;;;3.50;;
40635;SDS011;26642;55.766;37.828;2023-03-11T13:15:32;5.20;;;3.30;;
40635;SDS011;26642;55.766;37.828;2023-03-11T13:18:13;4.60;;;3.42;;
40635;SDS011;26642;55.766;37.828;2023-03-11T13:20:42;3.97;;;3.35;;
40635;SDS011;26642;55.766;37.828;2023-03-11T13:25:44;5.45;;;3.72;;
40635;SDS011;26642;55.766;37.828;2023-03-11T13:28:55;5.88;;;3.67;;
40635;SDS011;26642;55.766;37.828;2023-03-11T13:34:21;3.83;;;3.38;;
40635;SDS011;26642;55.766;37.828;2023-03-11T13:39:38;5.57;;;4.10;;
40635;SDS011;26642;55.766;37.828;2023-03-11T13:44:57;5.43;;;3.35;;
40635;SDS011;26642;55.766;37.828;2023-03-11T13:47:29;5.82;;;3.75;;
40635;SDS011;26642;55.766;37.828;2023-03-11T13:52:32;6.03;;;3.60;;
40635;SDS011;26642;55.766;37.828;2023-03-11T13:57:53;6.93;;;3.83;;
40635;SDS011;26642;55.766;37.828;2023-03-11T14:00:22;4.20;;;3.20;;
40635;SDS011;26642;55.766;37.828;2023-03-11T14:02:54;4.25;;;3.47;;
40635;SDS011;26642;55.766;37.828;2023-03-11T14:05:31;3.78;;;3.30;;
40635;SDS011;26642;55.766;37.828;2023-03-11T14:13:51;5.72;;;3.70;;
40635;SDS011;26642;55.766;37.828;2023-03-11T14:21:33;4.63;;;3.60;;
40635;SDS011;26642;55.766;37.828;2023-03-11T14:23:59;7.38;;;4.50;;
40635;SDS011;26642;55.766;37.828;2023-03-11T14:26:28;5.63;;;4.00;;
40635;SDS011;26642;55.766;37.828;2023-03-11T14:29:00;4.70;;;3.88;;
40635;SDS011;26642;55.766;37.828;2023-03-11T14:31:35;7.03;;;4.88;;
40635;SDS011;26642;55.766;37.828;2023-03-11T14:36:39;7.35;;;4.78;;
40635;SDS011;26642;55.766;37.828;2023-03-11T14:39:20;8.00;;;4.10;;
40635;SDS011;26642;55.766;37.828;2023-03-11T14:44:46;6.72;;;4.80;;
40635;SDS011;26642;55.766;37.828;2023-03-11T14:50:15;7.25;;;4.30;;
40635;SDS011;26642;55.766;37.828;2023-03-11T14:55:19;8.38;;;5.00;;
40635;SDS011;26642;55.766;37.828;2023-03-11T14:58:00;8.95;;;5.10;;
40635;SDS011;26642;55.766;37.828;2023-03-11T15:00:33;7.30;;;5.10;;
40635;SDS011;26642;55.766;37.828;2023-03-11T15:05:54;6.88;;;4.63;;
40635;SDS011;26642;55.766;37.828;2023-03-11T15:08:25;7.60;;;5.03;;
40635;SDS011;26642;55.766;37.828;2023-03-11T15:13:35;6.50;;;4.45;;
40635;SDS011;26642;55.766;37.828;2023-03-11T15:16:04;6.13;;;4.90;;
40635;SDS011;26642;55.766;37.828;2023-03-11T15:18:36;8.00;;;5.47;;
40635;SDS011;26642;55.766;37.828;2023-03-11T15:23:32;9.35;;;5.57;;
40635;SDS011;26642;55.766;37.828;2023-03-11T15:25:59;6.13;;;4.85;;
40635;SDS011;26642;55.766;37.828;2023-03-11T15:28:32;6.70;;;4.65;;
40635;SDS011;26642;55.766;37.828;2023-03-11T15:31:24;8.45;;;5.07;;
40635;SDS011;26642;55.766;37.828;2023-03-11T15:34:06;7.63;;;5.43;;
40635;SDS011;26642;55.766;37.828;2023-03-11T15:41:43;8.75;;;5.22;;
40635;SDS011;26642;55.766;37.828;2023-03-11T15:44:56;11.60;;;5.97;;
40635;SDS011;26642;55.766;37.828;2023-03-11T15:47:32;9.38;;;5.43;;
40635;SDS011;26642;55.766;37.828;2023-03-11T15:50:16;7.97;;;5.13;;
40635;SDS011;26642;55.766;37.828;2023-03-11T15:52:49;7.60;;;4.70;;
40635;SDS011;26642;55.766;37.828;2023-03-11T15:55:16;6.97;;;4.75;;
40635;SDS011;26642;55.766;37.828;2023-03-11T15:57:44;8.55;;;4.80;;
40635;SDS011;26642;55.766;37.828;2023-03-11T16:00:18;8.80;;;5.15;;
40635;SDS011;26642;55.766;37.828;2023-03-11T16:02:47;9.45;;;5.50;;
40635;SDS011;26642;55.766;37.828;2023-03-11T16:05:15;8.88;;;5.45;;
40635;SDS011;26642;55.766;37.828;2023-03-11T16:07:44;10.45;;;5.40;;
40635;SDS011;26642;55.766;37.828;2023-03-11T16:10:11;9.20;;;5.70;;
40635;SDS011;26642;55.766;37.828;2023-03-11T16:12:38;12.65;;;5.60;;
40635;SDS011;26642;55.766;37.828;2023-03-11T16:15:15;12.25;;;6.40;;
40635;SDS011;26642;55.766;37.828;2023-03-11T16:17:51;11.13;;;6.32;;
40635;SDS011;26642;55.766;37.828;2023-03-11T16:20:18;12.45;;;6.82;;
40635;SDS011;26642;55.766;37.828;2023-03-11T16:22:45;13.68;;;6.70;;
40635;SDS011;26642;55.766;37.828;2023-03-11T16:25:32;16.65;;;6.80;;
40635;SDS011;26642;55.766;37.828;2023-03-11T16:28:00;15.30;;;6.65;;
40635;SDS011;26642;55.766;37.828;2023-03-11T16:30:27;13.75;;;7.20;;
40635;SDS011;26642;55.766;37.828;2023-03-11T16:32:54;14.77;;;7.32;;
40635;SDS011;26642;55.766;37.828;2023-03-11T16:35:21;13.93;;;7.97;;
40635;SDS011;26642;55.766;37.828;2023-03-11T16:37:47;13.68;;;8.15;;
40635;SDS011;26642;55.766;37.828;2023-03-11T16:40:15;17.50;;;8.10;;
40635;SDS011;26642;55.766;37.828;2023-03-11T16:42:44;14.63;;;8.85;;
40635;SDS011;26642;55.766;37.828;2023-03-11T16:45:11;14.75;;;7.97;;
40635;SDS011;26642;55.766;37.828;2023-03-11T16:47:38;13.75;;;8.15;;
40635;SDS011;26642;55.766;37.828;2023-03-11T16:50:04;15.45;;;8.65;;
40635;SDS011;26642;55.766;37.828;2023-03-11T16:52:31;14.80;;;8.75;;
40635;SDS011;26642;55.766;37.828;2023-03-11T16:54:57;13.43;;;7.57;;
40635;SDS011;26642;55.766;37.828;2023-03-11T16:57:23;15.25;;;7.95;;